Crooked Creek Research Lab Weather observations

Data are for 10 minute period ending at time listed.
 Day   Time    Ave.   Ave.  Ave.  Vector   Max.   Stn.    Total    Solar   Ave.   Snow 
  of    of     Air    Rel.  Wind   Wind    Wind   Baro.  Precip.   Rad.    Soil   Depth
Year   Day     Temp.  Hum.  Speed  Dir.    Gust   Pres.                    Temp.       
2014   (PST)    F      %     mph   deg.    mph     mb.     in.     W/m2     F      in. 
---------------------------------------------------------------------------------------  
 294    0:00   37.2    70    2.8   177      5.6   701.8    0.00       0    999.0    -0.6
 294    0:10   37.0    71    3.4   151      6.2   701.7    0.00       0    999.0    -0.6
 294    0:20   37.1    71    2.9   171      4.9   701.7    0.00       0    999.0    -0.6
 294    0:30   37.5    70    2.8   172      4.8   701.8    0.00       0    999.0    -0.7
 294    0:40   37.4    70    3.2   160      5.6   701.6    0.00       0    999.0    -0.6
 294    0:50   36.6    71    3.0   153      4.5   701.6    0.00       0    999.0    -0.8
 294    1:00   35.8    73    2.2   168      4.4   701.6    0.00       0    999.0    -0.7
 294    1:10   35.2    74    1.6   167      2.9   701.5    0.00       0    999.0    -0.7
 294    1:20   35.6    73    1.8   165      3.4   701.5    0.00       0    999.0    -0.7
 294    1:30   36.1    71    1.1   164      2.7   701.3    0.00       0    999.0    -0.6
 294    1:40   36.5    70    1.2   161      2.5   701.1    0.00       0    999.0    -0.7
 294    1:50   36.7    68    2.8   158      5.4   701.3    0.00       0    999.0    -0.7
 294    2:00   36.2    69    2.7   151      5.3   701.0    0.00       0    999.0    -0.6
 294    2:10   36.9    66    1.4   195      4.8   701.0    0.00       0    999.0    -0.7
 294    2:20   35.4    68    1.5   182      5.8   701.0    0.00       0    999.0    -0.7
 294    2:30   35.7    67    1.1   203      3.8   700.8    0.00       0    999.0    -0.7
 294    2:40   35.8    66    1.6   166      3.7   700.8    0.00       0    999.0    -0.7
 294    2:50   35.9    65    1.7   189      5.3   700.7    0.00       0    999.0    -0.5
 294    3:00   37.6    59    3.2   172      6.1   700.7    0.00       0    999.0    -0.5
 294    3:10   37.7    58    2.9   156      7.2   700.7    0.00       0    999.0    -0.7
 294    3:20   37.9    56    2.2   169      5.3   700.7    0.00       0    999.0    -0.7
 294    3:30   36.9    56    2.6   153      5.8   700.7    0.00       0    999.0    -0.6
 294    3:40   36.0    55    2.5   153      4.5   700.7    0.00       0    999.0    -0.8
 294    3:50   35.8    52    3.4   160     10.7   700.6    0.00       0    999.0    -0.6
 294    4:00   37.4    47    3.2   162      6.6   700.5    0.00       0    999.0    -0.6
 294    4:10   38.1    46    3.5   191      7.1   700.5    0.00       0    999.0    -0.6
 294    4:20   38.2    45    2.6   199      6.5   700.6    0.00       0    999.0    -0.6
 294    4:30   37.8    46    1.9   168      5.2   700.7    0.00       0    999.0    -0.5
 294    4:40   37.5    47    2.7   169      8.3   700.7    0.00       0    999.0    -0.6
 294    4:50   36.4    49    2.9   163      6.0   700.7    0.00       0    999.0    -0.7
 294    5:00   35.8    50    2.2   187      6.2   700.7    0.00       0    999.0    -0.6
 294    5:10   35.1    51    1.8   175      5.8   700.5    0.00       0    999.0    -0.5
 294    5:20   35.8    50    2.5   206      6.5   700.6    0.00       0    999.0    -0.6
 294    5:30   36.6    48    1.6   210      7.4   700.5    0.00       0    999.0    -0.5
 294    5:40   36.8    47    2.0   210      8.2   700.6    0.00       0    999.0    -0.5
 294    5:50   37.4    47    2.6   204      8.8   700.4    0.00       2    999.0    -0.6
 294    6:00   36.1    50    2.3   186      7.5   700.6    0.00       4    999.0    -0.6
 294    6:10   36.1    48    2.6   216      7.5   700.7    0.00       7    999.0    -0.5
 294    6:20   37.1    44    2.0   211      8.8   700.8    0.00       9    999.0    -0.6
 294    6:30   37.7    43    2.4   195      6.3   700.7    0.00      11    999.0    -0.6
 294    6:40   38.5    43    2.9   151      9.9   700.7    0.00      13    999.0    -0.5
 294    6:50   38.9    41    1.8   173      5.4   700.9    0.00      14    999.0    -0.5
 294    7:00   39.1    41    2.5   136      6.8   701.0    0.00      15    999.0    -0.5
 294    7:10   39.7    41    2.5   177      6.4   701.0    0.00      64    999.0    -0.6
 294    7:20   42.5    38    1.9   173      5.8   701.1    0.00     255    999.0    -0.6
 294    7:30   44.1    37    2.2   208      8.4   701.1    0.00     288    999.0    -0.6
 294    7:40   44.5    37    4.7   227     12.1   701.2    0.00     319    999.0    -0.6
 294    7:50   44.2    37    5.3   230     13.4   701.1    0.00     349    999.0    -0.6
 294    8:00   45.0    36    4.3   224     11.2   701.1    0.00     378    999.0    -0.6
 294    8:10   45.5    36    5.0   217     12.3   701.2    0.00     407    999.0    -0.6
 294    8:20   45.9    35    4.8   218     11.5   701.3    0.00     433    999.0    -0.7
 294    8:30   46.7    35    4.1   223     16.5   701.3    0.00     459    999.0    -0.6
 294    8:40   47.4    33    3.3   210      9.1   701.5    0.00     483    999.0    -0.7
 294    8:50   47.6    33    3.8   186     11.3   701.5    0.00     507    999.0    -0.6
 294    9:00   48.0    33    4.6   227     14.5   701.5    0.00     531    999.0    -0.6
 294    9:10   48.3    31    4.6   210     11.7   701.4    0.00     551    999.0    -0.6
 294    9:20   48.6    29    5.3   231     12.3   701.5    0.00     569    999.0    -0.6
 294    9:30   48.5    29    5.0   220     13.9   701.4    0.00     587    999.0    -0.6
 294    9:40   49.5    29    4.7   201     12.6   701.4    0.00     604    999.0    -0.6
 294    9:50   49.9    28    5.0   220     15.6   701.4    0.00     620    999.0    -0.5
 294   10:00   50.0    27    5.1   211     12.8   701.4    0.00     635    999.0    -0.5
 294   10:10   50.6    26    4.1   208     11.0   701.4    0.00     647    999.0    -0.6
 294   10:20   50.8    26    6.3   234     14.2   701.3    0.00     658    999.0    -0.6
 294   10:30   50.8    26    5.4   222     15.7   701.2    0.00     668    999.0    -0.5
 294   10:40   50.5    26    6.7   218     16.1   701.3    0.00     677    999.0    -0.6
 294   10:50   51.5    25    5.1   198     15.9   701.0    0.00     683    999.0    -0.6
 294   11:00   51.6    26    6.5   211     16.1   700.9    0.00     689    999.0    -0.5
 294   11:10   51.8    26    5.5   226     18.4   700.8    0.00     692    999.0    -0.5
 294   11:20   51.7    22    8.0   236     18.3   700.8    0.00     695    999.0    -0.6
 294   11:30   52.0    26    8.3   242     17.2   700.7    0.00     692    999.0    -0.4
 294   11:40   52.4    28    9.9   255     17.8   700.7    0.00     690    999.0    -0.5
 294   11:50   51.6    26   10.2   240     18.5   700.5    0.00     690    999.0    -0.5
 294   12:00   51.4    26    8.1   237     18.0   700.7    0.00     682    999.0    -0.5
 294   12:10   51.4    27   10.6   239     19.0   700.5    0.00     674    999.0    -0.5
 294   12:20   51.5    29    6.7   235     14.1   700.4    0.00     666    999.0    -0.4
 294   12:30   51.9    30    7.5   258     14.9   700.5    0.00     661    999.0    -0.5
 294   12:40   51.9    30    7.4   250     18.6   700.4    0.00     648    999.0    -0.5
 294   12:50   51.6    30    9.0   253     15.9   700.4    0.00     633    999.0    -0.3
 294   13:00   51.5    30    9.6   272     17.9   700.4    0.00     621    999.0    -0.3
 294   13:10   52.1    28    7.1   238     17.2   700.2    0.00     602    999.0    -0.5
 294   13:20   52.7    25    4.5   177     13.2   700.2    0.00     602    999.0    -0.6
 294   13:30   52.9    23    7.2   139     14.3   700.2    0.00     396    999.0    -0.4
 294   13:40   50.8    26    4.8   207     16.4   700.0    0.00     283    999.0    -0.4
 294   13:50   51.9    26    6.4   154     15.3   700.2    0.00     509    999.0    -0.2
 294   14:00   53.1    26    5.3   213     16.7   700.2    0.00     503    999.0    -0.5
 294   14:10   52.7    27    6.3   182     16.1   700.0    0.00     478    999.0    -0.4
 294   14:20   52.8    24    6.9   139     13.8   700.1    0.00     450    999.0    -0.3
 294   14:30   52.9    23    5.1   208     26.4   700.0    0.00     387    999.0    -0.4
 294   14:40   52.8    25    6.0   217     20.2   700.0    0.00     394    999.0    -0.4
 294   14:50   52.8    24    3.5   170      9.3   699.9    0.00     331    999.0    -0.3
 294   15:00   52.8    25    4.8   202     16.9   699.9    0.00     303    999.0    -0.3
 294   15:10   52.8    26    3.2   177     11.4   699.9    0.00     314    999.0    -0.4
 294   15:20   52.2    31    5.1   170     15.3   699.8    0.00     258    999.0    -0.4
 294   15:30   51.4    35    4.3   164     10.4   699.8    0.00     255    999.0    -0.3
 294   15:40   51.6    31    4.3   140     12.5   699.7    0.00     216    999.0    -0.4
 294   15:50   51.1    30    4.6   185     16.7   699.6    0.00     168    999.0    -0.5
 294   16:00   50.5    31    4.2   170      9.8   699.6    0.00     153    999.0    -0.4
 294   16:10   49.7    30    5.3   133     12.6   699.5    0.00     124    999.0    -0.4
 294   16:20   49.0    31    5.3   132     15.4   699.5    0.00      80    999.0    -0.3
 294   16:30   47.7    34    4.2   140      9.4   699.3    0.00      18    999.0    -0.4
 294   16:40   46.7    37    3.0   162     12.2   699.3    0.00      13    999.0    -0.3
 294   16:50   46.1    39    3.9   187     11.0   699.3    0.00       8    999.0    -0.3
 294   17:00   45.8    38    3.3   166     10.8   699.3    0.00       5    999.0    -0.3
 294   17:10   45.2    39    4.0   160     11.7   699.2    0.00       3    999.0    -0.3
 294   17:20   44.7    39    3.9   188     11.0   699.3    0.00       0    999.0    -0.4
 294   17:30   44.3    38    4.1   169     10.4   699.4    0.00       0    999.0    -0.4
 294   17:40   44.1    38    4.6   168     15.0   699.2    0.00       0    999.0    -0.4
 294   17:50   43.6    38    2.9   197      9.3   699.4    0.00       0    999.0    -0.4
 294   18:00   43.2    39    4.3   156     10.2   699.4    0.00       0    999.0    -0.3
 294   18:10   43.1    39    4.0   152     10.2   699.3    0.00       0    999.0    -0.4
 294   18:20   42.9    38    2.7   182      8.7   699.3    0.00       0    999.0    -0.5
 294   18:30   42.7    38    4.1   153     13.7   699.1    0.00       0    999.0    -0.4
 294   18:40   42.6    36    5.2   140     10.7   699.3    0.00       0    999.0    -0.4
 294   18:50   42.2    36    3.6   148      9.9   699.4    0.00       0    999.0    -0.4
 294   19:00   40.8    37    2.8   157      7.5   699.3    0.00       0    999.0    -0.5
 294   19:10   40.0    37    3.8   155      7.5   699.3    0.00       0    999.0    -0.5
 294   19:20   39.6    37    3.5   181      7.2   699.4    0.00       0    999.0    -0.6
 294   19:30   39.0    38    2.3   200      3.8   699.3    0.00       0    999.0    -0.7
 294   19:40   37.5    39    2.4   211      4.7   699.2    0.00       0    999.0    -0.7
 294   19:50   35.7    41    3.4   225      6.9   699.4    0.00       0    999.0    -0.7
 294   20:00   36.0    40    1.9   218      7.1   699.2    0.00       0    999.0    -0.7
 294   20:10   35.4    40    1.5   210      4.8   699.3    0.00       0    999.0    -0.7
 294   20:20   33.4    43    1.9   153      4.7   699.3    0.00       0    999.0    -0.7
 294   20:30   36.0    40    3.8   152      9.0   699.2    0.00       0    999.0    -0.4
 294   20:40   38.6    36    4.2   137      9.9   699.0    0.00       0    999.0    -0.5
 294   20:50   39.9    35    3.8   137     11.6   699.1    0.00       0    999.0    -0.6
 294   21:00   40.2    34    6.5   119     13.1   699.2    0.00       0    999.0    -0.5
 294   21:10   39.7    35    4.0   141     10.8   699.3    0.00       0    999.0    -0.5
 294   21:20   38.9    35    2.1   150      6.4   699.3    0.00       0    999.0    -0.5
 294   21:30   38.5    36    3.0   166      9.1   699.3    0.00       0    999.0    -0.5
 294   21:40   38.7    35    2.9   177      8.3   699.3    0.00       0    999.0    -0.5
 294   21:50   38.6    35    5.5   135     11.5   699.5    0.00       0    999.0    -0.6
 294   22:00   38.1    34    2.7   163     10.1   699.3    0.00       0    999.0    -0.6
 294   22:10   37.9    33    4.9   137     10.0   699.3    0.00       0    999.0    -0.5
 294   22:20   37.8    32    3.6   160      8.5   699.3    0.00       0    999.0    -0.6
 294   22:30   37.4    29    3.6   150      7.3   699.3    0.00       0    999.0    -0.6
 294   22:40   37.8    26    3.3   142     10.8   699.0    0.00       0    999.0    -0.4
 294   22:50   39.1    17    4.8   208     16.6   699.1    0.00       0    999.0    -0.5
 294   23:00   40.5    13    5.8   182     16.4   699.2    0.00       0    999.0    -0.5
 294   23:10   40.8    12    6.6   225     20.7   699.0    0.00       0    999.0    -0.5
 294   23:20   40.5    12    9.0   239     18.5   699.2    0.00       0    999.0    -0.5
 294   23:30   40.0    13    7.9   242     15.3   699.2    0.00       0    999.0    -0.5
 294   23:40   39.7    15    8.9   244     18.9   699.5    0.00       0    999.0    -0.4
 294   23:50   39.4    14    8.2   243     18.0   699.3    0.00       0    999.0    -0.5

Return to Crooked Creek Research Lab graphs page.


Western Regional Climate Center,wrcc@dri.edu